createdAt,value
2018-09-14T00:01:20.471Z,5.93
2018-09-14T00:03:51.621Z,5.90
2018-09-14T00:06:22.470Z,5.57
2018-09-14T00:08:58.943Z,5.87
2018-09-14T00:11:30.188Z,5.77
2018-09-14T00:14:01.014Z,5.40
2018-09-14T00:16:31.817Z,5.87
2018-09-14T00:19:02.738Z,5.67
2018-09-14T00:21:33.718Z,6.10
2018-09-14T00:24:04.482Z,5.47
2018-09-14T00:26:35.254Z,5.97
2018-09-14T00:29:06.462Z,6.13
2018-09-14T00:31:37.260Z,6.03
2018-09-14T00:34:08.398Z,6.30
2018-09-14T00:36:39.179Z,6.07
2018-09-14T00:39:11.752Z,5.97
2018-09-14T00:41:42.600Z,5.93
2018-09-14T00:44:13.557Z,6.07
2018-09-14T00:46:44.554Z,5.50
2018-09-14T00:49:15.395Z,6.17
2018-09-14T00:51:46.250Z,6.90
2018-09-14T00:54:17.042Z,6.33
2018-09-14T00:56:48.046Z,5.97
2018-09-14T00:59:19.182Z,6.30
2018-09-14T01:01:50.023Z,5.77
2018-09-14T01:04:26.906Z,6.13
2018-09-14T01:06:57.734Z,6.07
2018-09-14T01:09:29.165Z,6.37
2018-09-14T01:12:00.852Z,6.00
2018-09-14T01:14:31.741Z,6.30
2018-09-14T01:17:02.544Z,6.80
2018-09-14T01:19:33.490Z,5.93
2018-09-14T01:22:04.303Z,6.40
2018-09-14T01:24:35.166Z,6.67
2018-09-14T01:27:06.084Z,6.50
2018-09-14T01:29:37.234Z,6.10
2018-09-14T01:32:08.088Z,5.83
2018-09-14T01:34:39.158Z,5.70
2018-09-14T01:37:09.921Z,5.90
2018-09-14T01:39:40.805Z,6.07
2018-09-14T01:42:11.612Z,5.90
2018-09-14T01:44:42.417Z,5.13
2018-09-14T01:47:13.205Z,5.80
2018-09-14T01:49:44.226Z,5.70
2018-09-14T01:52:14.939Z,6.47
2018-09-14T01:54:45.724Z,5.90
2018-09-14T01:57:16.509Z,5.47
2018-09-14T01:59:47.341Z,6.40
2018-09-14T02:02:18.149Z,6.27
2018-09-14T02:04:49.435Z,5.70
2018-09-14T02:07:20.856Z,5.50
2018-09-14T02:09:51.986Z,6.00
2018-09-14T02:12:22.735Z,6.17
2018-09-14T02:14:53.679Z,5.90
2018-09-14T02:17:24.593Z,5.73
2018-09-14T02:19:55.632Z,6.00
2018-09-14T02:22:26.393Z,6.40
2018-09-14T02:24:57.246Z,6.13
2018-09-14T02:27:28.035Z,5.50
2018-09-14T02:29:59.906Z,5.93
2018-09-14T02:32:30.677Z,5.53
2018-09-14T02:35:01.947Z,6.47
2018-09-14T02:37:35.303Z,5.70
2018-09-14T02:40:06.715Z,6.00
2018-09-14T02:42:37.542Z,5.90
2018-09-14T02:45:08.459Z,6.23
2018-09-14T02:47:39.222Z,7.47
2018-09-14T02:50:10.093Z,5.80
2018-09-14T02:52:40.865Z,6.13
2018-09-14T02:55:13.145Z,6.13
2018-09-14T02:57:43.862Z,6.00
2018-09-14T03:00:15.024Z,5.57
2018-09-14T03:02:45.758Z,6.33
2018-09-14T03:05:16.933Z,5.83
2018-09-14T03:07:49.404Z,6.03
2018-09-14T03:10:20.703Z,6.17
2018-09-14T03:12:51.653Z,5.83
2018-09-14T03:15:22.552Z,5.57
2018-09-14T03:17:54.532Z,5.77
2018-09-14T03:20:25.235Z,5.70
2018-09-14T03:22:56.139Z,6.73
2018-09-14T03:25:27.054Z,5.53
2018-09-14T03:27:59.437Z,5.17
2018-09-14T03:30:30.205Z,5.47
2018-09-14T03:33:01.210Z,6.40
2018-09-14T03:35:32.309Z,6.20
2018-09-14T03:38:04.081Z,5.87
2018-09-14T03:40:35.296Z,6.53
2018-09-14T03:43:06.048Z,6.10
2018-09-14T03:45:36.832Z,5.83
2018-09-14T03:48:07.670Z,6.57
2018-09-14T03:50:38.466Z,6.13
2018-09-14T03:53:09.185Z,6.43
2018-09-14T03:55:40.884Z,5.93
2018-09-14T03:58:11.661Z,6.23
2018-09-14T04:00:42.459Z,6.60
2018-09-14T04:03:13.419Z,6.37
2018-09-14T04:05:44.631Z,5.80
2018-09-14T04:08:15.534Z,5.77
2018-09-14T04:10:46.407Z,5.83
2018-09-14T04:13:17.293Z,5.70
2018-09-14T04:15:48.208Z,6.40
2018-09-14T04:18:18.929Z,6.47
2018-09-14T04:20:49.704Z,6.00
2018-09-14T04:23:20.426Z,6.30
2018-09-14T04:25:51.182Z,6.67
2018-09-14T04:28:22.799Z,9.10
2018-09-14T04:30:54.876Z,6.80
2018-09-14T04:33:26.180Z,6.57
2018-09-14T04:35:57.823Z,6.27
2018-09-14T04:38:30.497Z,6.57
2018-09-14T04:41:01.237Z,6.90
2018-09-14T04:43:32.520Z,7.47
2018-09-14T04:46:03.586Z,7.70
2018-09-14T04:48:35.657Z,6.87
2018-09-14T04:51:07.055Z,7.30
2018-09-14T04:53:37.952Z,6.17
2018-09-14T04:56:10.342Z,5.97
2018-09-14T04:58:41.093Z,6.60
2018-09-14T05:01:12.145Z,6.50
2018-09-14T05:10:11.084Z,6.57
2018-09-14T05:12:41.946Z,6.07
2018-09-14T05:15:12.813Z,5.87
2018-09-14T06:14:06.700Z,7.40
2018-09-14T06:16:38.118Z,7.40
2018-09-14T06:19:09.144Z,6.67
2018-09-14T06:21:40.113Z,23.20
2018-09-14T06:24:11.146Z,18.03
2018-09-14T06:26:42.497Z,18.00
2018-09-14T06:29:13.965Z,17.40
2018-09-14T06:31:46.464Z,21.63
2018-09-14T06:34:17.540Z,19.67
2018-09-14T06:36:48.565Z,17.20
2018-09-14T06:39:19.853Z,7.33
2018-09-14T06:41:50.825Z,6.33
2018-09-14T06:44:21.719Z,5.70
2018-09-14T06:46:52.683Z,6.40
2018-09-14T06:49:23.616Z,6.23
2018-09-14T06:51:54.564Z,6.40
2018-09-14T06:54:25.481Z,6.00
2018-09-14T06:56:56.522Z,6.57
2018-09-14T06:59:27.420Z,6.37
2018-09-14T07:01:58.313Z,5.90
2018-09-14T07:04:29.214Z,5.70
2018-09-14T07:07:00.253Z,6.40
2018-09-14T07:09:31.675Z,7.00
2018-09-14T07:12:02.654Z,6.60
2018-09-14T07:14:33.568Z,6.47
2018-09-14T07:17:04.526Z,6.33
2018-09-14T07:19:35.535Z,5.83
2018-09-14T07:22:06.389Z,6.00
2018-09-14T07:24:37.317Z,5.77
2018-09-14T07:27:08.567Z,6.30
2018-09-14T07:29:39.595Z,5.80
2018-09-14T07:32:10.508Z,5.70
2018-09-14T07:34:41.404Z,6.03
2018-09-14T07:37:13.692Z,5.50
2018-09-14T07:39:44.889Z,5.93
2018-09-14T07:42:25.252Z,5.83
2018-09-14T07:44:56.143Z,5.63
2018-09-14T07:47:27.023Z,5.77
2018-09-14T07:49:57.944Z,6.10
2018-09-14T07:52:29.024Z,6.27
2018-09-14T07:55:00.010Z,6.40
2018-09-14T07:57:30.895Z,5.80
2018-09-14T08:00:01.988Z,5.57
2018-09-14T08:02:34.009Z,5.87
2018-09-14T08:05:05.354Z,5.97
2018-09-14T08:07:36.817Z,5.97
2018-09-14T08:10:08.155Z,6.00
2018-09-14T08:12:40.380Z,5.37
2018-09-14T08:15:11.292Z,5.70
2018-09-14T08:17:42.196Z,6.13
2018-09-14T08:20:13.119Z,5.63
2018-09-14T08:22:44.022Z,5.47
2018-09-14T08:25:15.889Z,5.90
2018-09-14T08:27:46.807Z,5.67
2018-09-14T08:30:18.691Z,5.57
2018-09-14T08:32:49.633Z,5.60
2018-09-14T08:35:20.544Z,5.67
2018-09-14T08:37:51.533Z,5.83
2018-09-14T08:40:23.512Z,5.40
2018-09-14T08:42:54.473Z,5.30
2018-09-14T08:45:25.390Z,5.23
2018-09-14T08:47:56.327Z,5.20
2018-09-14T08:50:27.453Z,5.07
2018-09-14T08:52:58.423Z,5.83
2018-09-14T08:55:29.319Z,5.60
2018-09-14T08:58:00.419Z,7.10
2018-09-14T09:00:31.267Z,5.83
2018-09-14T09:03:03.753Z,6.00
2018-09-14T09:05:34.949Z,7.10
2018-09-14T09:08:05.879Z,7.40
2018-09-14T09:10:38.073Z,6.60
2018-09-14T09:13:14.714Z,5.60
2018-09-14T09:15:46.636Z,5.50
2018-09-14T09:18:17.535Z,6.07
2018-09-14T09:20:48.511Z,5.77
2018-09-14T09:23:20.567Z,6.33
2018-09-14T09:25:51.402Z,5.40
2018-09-14T09:28:22.313Z,5.40
2018-09-14T09:30:53.214Z,6.30
2018-09-14T09:36:22.353Z,5.80
2018-09-14T09:38:53.405Z,6.37
2018-09-14T09:41:24.736Z,6.80
2018-09-14T09:43:57.634Z,6.40
2018-09-14T09:46:28.668Z,7.13
2018-09-14T09:48:59.772Z,6.33
2018-09-14T09:51:30.797Z,5.80
2018-09-14T09:54:02.818Z,5.93
2018-09-14T09:56:33.877Z,5.47
2018-09-14T09:59:04.821Z,5.60
2018-09-14T10:01:40.865Z,5.93
2018-09-14T10:04:16.921Z,6.00
2018-09-14T10:06:47.806Z,5.57
2018-09-14T10:09:18.755Z,5.37
2018-09-14T10:11:50.218Z,5.17
2018-09-14T10:30:19.515Z,4.70
2018-09-14T10:32:50.370Z,4.80
2018-09-14T10:35:22.599Z,4.80
2018-09-14T10:37:53.759Z,5.63
2018-09-14T10:40:24.546Z,5.03
2018-09-14T10:42:56.840Z,5.87
2018-09-14T10:45:28.765Z,5.63
2018-09-14T10:47:59.579Z,5.77
2018-09-14T10:50:30.407Z,5.40
2018-09-14T10:53:01.875Z,5.10
2018-09-14T10:55:32.718Z,5.57
2018-09-14T10:58:03.650Z,5.50
2018-09-14T11:00:34.965Z,5.00
2018-09-14T11:03:05.875Z,5.10
2018-09-14T11:05:36.970Z,5.20
2018-09-14T11:08:08.453Z,5.20
2018-09-14T11:10:39.493Z,5.33
2018-09-14T11:13:10.398Z,5.27
2018-09-14T11:15:41.367Z,6.20
2018-09-14T11:18:12.302Z,4.90
2018-09-14T11:20:43.108Z,5.03
2018-09-14T11:23:14.078Z,5.40
2018-09-14T11:25:44.905Z,5.30
2018-09-14T11:28:15.698Z,5.60
2018-09-14T11:30:46.665Z,5.40
2018-09-14T11:33:19.671Z,5.23
2018-09-14T11:35:51.944Z,5.30
2018-09-14T11:38:23.118Z,5.30
2018-09-14T11:40:53.758Z,5.00
2018-09-14T11:43:24.897Z,4.93
2018-09-14T11:45:57.300Z,5.50
2018-09-14T11:48:28.147Z,5.47
2018-09-14T11:50:58.880Z,5.47
2018-09-14T11:53:29.722Z,5.23
2018-09-14T11:56:01.745Z,5.50
2018-09-14T11:58:32.603Z,5.40
2018-09-14T12:01:03.404Z,6.00
2018-09-14T12:03:34.400Z,5.40
2018-09-14T12:06:06.277Z,5.73
2018-09-14T12:08:39.190Z,5.87
2018-09-14T12:11:10.250Z,5.57
2018-09-14T12:13:41.640Z,6.20
2018-09-14T12:16:12.416Z,5.80
2018-09-14T12:18:43.310Z,5.73
2018-09-14T12:21:14.076Z,6.93
2018-09-14T12:23:44.833Z,5.50
2018-09-14T12:26:15.594Z,6.43
2018-09-14T12:28:46.873Z,7.17
2018-09-14T12:31:19.593Z,10.27
2018-09-14T12:33:51.944Z,7.67
2018-09-14T12:36:22.703Z,8.43
2018-09-14T12:38:53.500Z,10.70
2018-09-14T12:41:24.240Z,9.33
2018-09-14T12:43:55.148Z,8.00
2018-09-14T12:46:26.017Z,7.17
2018-09-14T12:48:56.861Z,6.07
2018-09-14T12:51:27.866Z,6.93
2018-09-14T12:53:59.537Z,6.30
2018-09-14T12:56:30.925Z,6.70
2018-09-14T12:59:01.862Z,7.00
2018-09-14T13:01:32.659Z,6.70
2018-09-14T13:04:03.487Z,6.87
2018-09-14T13:06:35.087Z,6.70
2018-09-14T13:09:09.260Z,7.13
2018-09-14T13:11:40.799Z,6.53
2018-09-14T13:14:12.883Z,7.10
2018-09-14T13:16:43.722Z,7.90
2018-09-14T13:19:14.558Z,7.07
2018-09-14T13:21:45.352Z,6.83
2018-09-14T13:24:17.456Z,7.40
2018-09-14T13:26:48.953Z,7.37
2018-09-14T13:29:19.783Z,7.23
2018-09-14T13:31:52.987Z,7.23
2018-09-14T13:34:25.812Z,6.63
2018-09-14T13:36:56.794Z,8.53
2018-09-14T13:39:27.564Z,7.10
2018-09-14T13:41:59.591Z,7.43
2018-09-14T13:44:30.982Z,7.00
2018-09-14T13:47:02.237Z,7.07
2018-09-14T13:49:33.495Z,7.00
2018-09-14T13:52:05.166Z,7.07
2018-09-14T13:54:36.004Z,6.57
2018-09-14T13:57:08.384Z,6.03
2018-09-14T13:59:39.350Z,6.57
2018-09-14T14:02:10.837Z,6.23
2018-09-14T14:04:44.590Z,6.70
2018-09-14T14:07:15.487Z,30.40
2018-09-14T14:09:46.328Z,16.37
2018-09-14T14:12:17.001Z,6.77
2018-09-14T14:14:47.848Z,7.80
2018-09-14T14:17:18.643Z,7.03
2018-09-14T14:19:49.870Z,6.40
2018-09-14T14:22:21.180Z,7.20
2018-09-14T14:24:51.973Z,7.43
2018-09-14T14:27:23.919Z,6.87
2018-09-14T14:29:55.648Z,6.70
2018-09-14T14:32:26.716Z,6.00
2018-09-14T14:34:58.260Z,6.93
2018-09-14T14:37:29.651Z,8.40
2018-09-14T14:40:01.358Z,9.57
2018-09-14T14:42:34.683Z,10.30
2018-09-14T14:45:06.351Z,10.57
2018-09-14T14:47:39.529Z,12.10
2018-09-14T14:50:10.577Z,11.43
2018-09-14T14:52:42.053Z,12.33
2018-09-14T14:55:13.954Z,11.20
2018-09-14T14:57:44.980Z,11.27
2018-09-14T15:00:15.947Z,12.50
2018-09-14T15:02:50.029Z,13.53
2018-09-14T15:05:21.295Z,12.60
2018-09-14T15:07:52.128Z,18.13
2018-09-14T15:10:23.103Z,24.27
2018-09-14T15:12:54.683Z,13.37
2018-09-14T15:15:26.710Z,13.07
2018-09-14T15:17:57.684Z,13.77
2018-09-14T15:20:28.851Z,13.87
2018-09-14T15:23:00.462Z,14.37
2018-09-14T15:25:31.834Z,12.93
2018-09-14T15:28:02.953Z,13.47
2018-09-14T15:30:33.862Z,15.27
2018-09-14T15:33:05.307Z,15.00
2018-09-14T15:35:36.861Z,13.93
2018-09-14T15:38:07.919Z,13.93
2018-09-14T15:40:38.788Z,15.07
2018-09-14T15:43:11.290Z,16.17
2018-09-14T15:45:43.052Z,15.23
2018-09-14T15:48:14.992Z,15.47
2018-09-14T15:50:46.488Z,14.60
2018-09-14T15:53:19.075Z,15.10
2018-09-14T15:55:50.121Z,14.83
2018-09-14T15:58:22.148Z,16.27
2018-09-14T16:00:54.124Z,18.67
2018-09-14T16:03:27.051Z,16.33
2018-09-14T16:05:58.167Z,17.10
2018-09-14T16:08:29.319Z,16.77
2018-09-14T16:11:00.432Z,18.13
2018-09-14T16:13:33.817Z,17.27
2018-09-14T16:16:04.902Z,18.60
2018-09-14T16:18:35.983Z,17.90
2018-09-14T16:21:06.864Z,18.43
2018-09-14T16:23:38.875Z,19.50
2018-09-14T16:26:10.636Z,18.83
2018-09-14T16:28:41.557Z,21.07
2018-09-14T16:31:15.517Z,18.83
2018-09-14T16:33:47.612Z,20.30
2018-09-14T16:36:19.655Z,20.93
2018-09-14T16:38:51.451Z,20.53
2018-09-14T16:41:25.382Z,20.13
2018-09-14T16:43:56.178Z,21.10
2018-09-14T16:46:28.025Z,20.07
2018-09-14T16:48:59.049Z,21.43
2018-09-14T16:51:30.657Z,21.20
2018-09-14T16:54:01.438Z,20.77
2018-09-14T16:56:33.303Z,21.33
2018-09-14T16:59:08.110Z,20.30
2018-09-14T17:01:40.975Z,21.13
2018-09-14T17:04:11.963Z,20.87
2018-09-14T17:06:43.999Z,19.87
2018-09-14T17:09:15.352Z,21.23
2018-09-14T17:11:46.562Z,21.17
2018-09-14T17:14:18.666Z,20.63
2018-09-14T17:16:51.405Z,36.97
2018-09-14T17:19:22.365Z,22.80
2018-09-14T17:21:55.432Z,21.73
2018-09-14T17:24:26.225Z,19.67
2018-09-14T17:26:58.773Z,20.63
2018-09-14T17:29:29.620Z,18.80
2018-09-14T17:32:01.590Z,18.93
2018-09-14T17:34:37.359Z,19.47
2018-09-14T17:37:08.669Z,19.10
2018-09-14T17:39:39.565Z,18.37
2018-09-14T17:42:11.368Z,17.93
2018-09-14T17:44:42.352Z,19.03
2018-09-14T17:47:13.543Z,20.13
2018-09-14T17:49:45.011Z,18.27
2018-09-14T17:52:16.511Z,19.93
2018-09-14T17:54:47.447Z,17.20
2018-09-14T17:57:18.536Z,18.03
2018-09-14T17:59:49.747Z,18.97
2018-09-14T18:02:20.636Z,18.47
2018-09-14T18:04:51.587Z,58.20
2018-09-14T18:07:22.624Z,73.07
2018-09-14T18:09:54.949Z,18.60
2018-09-14T18:12:25.938Z,17.17
2018-09-14T18:14:56.827Z,16.67
2018-09-14T18:17:31.443Z,16.50
2018-09-14T18:20:02.465Z,16.93
2018-09-14T18:22:33.472Z,17.00
2018-09-14T18:25:05.743Z,15.70
2018-09-14T18:27:36.629Z,16.63
2018-09-14T18:30:08.954Z,14.77
2018-09-14T18:32:41.915Z,15.30
2018-09-14T18:35:19.275Z,15.70
2018-09-14T19:24:23.277Z,15.83
2018-09-14T19:27:00.227Z,16.67
2018-09-14T19:29:32.852Z,16.60
2018-09-14T19:32:03.854Z,17.23
2018-09-14T19:34:34.794Z,17.23
2018-09-14T19:37:11.796Z,17.23
2018-09-14T19:39:42.898Z,16.20
2018-09-14T19:42:19.699Z,17.73
2018-09-14T19:44:53.831Z,17.13
2018-09-14T19:47:24.682Z,17.17
2018-09-14T19:49:56.204Z,16.30
2018-09-14T19:52:27.694Z,16.30
2018-09-14T19:54:59.472Z,16.83
2018-09-14T19:57:31.644Z,16.57
2018-09-14T20:00:04.760Z,15.77
2018-09-14T20:02:36.666Z,15.63
2018-09-14T20:05:09.878Z,15.70
2018-09-14T20:07:55.110Z,17.60
2018-09-14T20:10:54.619Z,17.13
2018-09-14T20:13:33.458Z,15.20
2018-09-14T20:16:04.731Z,16.53
2018-09-14T20:18:35.965Z,15.83
2018-09-14T20:21:06.943Z,18.27
2018-09-14T20:23:38.004Z,18.77
2018-09-14T20:26:09.329Z,18.70
2018-09-14T20:28:40.400Z,19.63
2018-09-14T20:31:11.913Z,18.37
2018-09-14T20:33:42.868Z,18.70
2018-09-14T20:36:13.890Z,17.93
2018-09-14T20:38:46.697Z,20.17
2018-09-14T20:41:18.281Z,20.50
2018-09-14T20:43:50.009Z,20.60
2018-09-14T20:46:23.403Z,19.60
2018-09-14T20:48:54.815Z,19.40
2018-09-14T20:51:27.891Z,18.43
2018-09-14T20:54:00.871Z,18.77
2018-09-14T20:56:35.017Z,18.97
2018-09-14T20:59:09.652Z,18.77
2018-09-14T21:01:42.883Z,17.77
2018-09-14T21:04:16.752Z,17.43
2018-09-14T21:06:47.999Z,17.23
2018-09-14T21:09:19.279Z,18.73
2018-09-14T21:11:54.386Z,16.90
2018-09-14T21:14:36.845Z,15.80
2018-09-14T21:17:07.869Z,11.87
2018-09-14T21:19:40.084Z,10.10
